Time;durP1;ratioP1;P1;durP2;ratioP2;P2;SDS_P1;SDS_P2;PMS_P1;PMS_P2;Temp;Humidity;BMP_temperature;BMP_pressure;BME280_temperature;BME280_humidity;BME280_pressure;Samples;Min_cycle;Max_cycle;Signal;HPM_P1;HPM_P2
2022/11/29 00:02:09;;;;;;;19.00;11.93;;;5.90;99.90;;;;;;5026326;28;20176;-71
2022/11/29 00:04:36;;;;;;;19.33;11.27;;;5.90;99.90;;;;;;5027452;28;20156;-71
2022/11/29 00:07:02;;;;;;;19.85;12.52;;;5.90;99.90;;;;;;5030051;28;20069;-71
2022/11/29 00:09:27;;;;;;;22.13;13.13;;;5.90;99.90;;;;;;5021778;28;20088;-71
2022/11/29 00:12:11;;;;;;;19.05;12.45;;;5.90;99.90;;;;;;5027273;28;20045;-72
2022/11/29 00:14:38;;;;;;;19.45;12.25;;;5.90;99.90;;;;;;5015267;28;20042;-70
2022/11/29 00:17:04;;;;;;;18.55;11.65;;;5.90;99.90;;;;;;5028698;28;20041;-72
2022/11/29 00:19:31;;;;;;;20.50;12.48;;;5.90;99.90;;;;;;4997701;28;20049;-72
2022/11/29 00:21:58;;;;;;;23.13;13.93;;;5.90;99.90;;;;;;5028817;28;20119;-72
2022/11/29 00:24:24;;;;;;;23.92;12.73;;;5.90;99.90;;;;;;5008306;28;20041;-71
2022/11/29 00:26:50;;;;;;;21.08;11.93;;;5.90;99.90;;;;;;5009970;28;20045;-71
2022/11/29 00:29:16;;;;;;;18.75;11.82;;;5.90;99.90;;;;;;5023155;28;20049;-72
2022/11/29 00:31:42;;;;;;;18.58;11.63;;;6.00;99.90;;;;;;5011697;28;20199;-72
2022/11/29 00:34:08;;;;;;;19.38;11.82;;;6.00;99.90;;;;;;5012272;28;20530;-71
2022/11/29 00:36:34;;;;;;;21.90;13.15;;;6.00;99.90;;;;;;5013056;28;20099;-71
2022/11/29 00:39:01;;;;;;;17.92;11.50;;;6.00;99.90;;;;;;5028047;28;20143;-72
2022/11/29 00:41:26;;;;;;;19.98;12.25;;;5.90;99.90;;;;;;5006113;28;20447;-71
2022/11/29 00:43:52;;;;;;;19.88;12.25;;;6.00;99.90;;;;;;5027962;28;20056;-70
2022/11/29 00:46:18;;;;;;;18.80;11.90;;;6.00;99.90;;;;;;5024494;28;20054;-71
2022/11/29 00:48:44;;;;;;;21.95;12.32;;;6.00;99.90;;;;;;5026367;28;20581;-71
2022/11/29 00:51:09;;;;;;;23.73;12.50;;;6.00;99.90;;;;;;5027516;28;20057;-71
2022/11/29 00:53:35;;;;;;;18.65;11.40;;;6.00;99.90;;;;;;4996475;28;20045;-70
2022/11/29 00:56:01;;;;;;;19.30;12.48;;;5.90;99.90;;;;;;5022452;28;20049;-70
2022/11/29 00:58:27;;;;;;;18.15;12.43;;;6.00;99.90;;;;;;4979934;28;20045;-70
2022/11/29 01:00:53;;;;;;;18.58;11.43;;;6.00;99.90;;;;;;5006463;28;20124;-71
2022/11/29 01:03:19;;;;;;;23.83;12.05;;;6.00;99.90;;;;;;5012817;28;20049;-70
2022/11/29 01:05:44;;;;;;;20.80;12.90;;;6.00;99.90;;;;;;5027480;28;20060;-71
2022/11/29 01:08:10;;;;;;;19.38;12.70;;;6.00;99.90;;;;;;5012803;28;20464;-71
2022/11/29 01:10:36;;;;;;;20.05;12.57;;;6.00;99.90;;;;;;5008487;28;20053;-71
2022/11/29 01:13:02;;;;;;;22.40;12.32;;;5.90;99.90;;;;;;5010009;28;20045;-72
2022/11/29 01:15:27;;;;;;;21.75;12.73;;;6.00;99.90;;;;;;5027333;28;20376;-71
2022/11/29 01:17:53;;;;;;;22.67;12.65;;;6.00;99.90;;;;;;5030299;28;20045;-71
2022/11/29 01:20:19;;;;;;;19.55;12.45;;;6.00;99.90;;;;;;5028488;28;20045;-70
2022/11/29 01:22:45;;;;;;;19.25;12.00;;;6.00;99.90;;;;;;5011280;28;20049;-72
2022/11/29 01:25:11;;;;;;;21.98;13.65;;;6.00;99.90;;;;;;5025781;28;20049;-71
2022/11/29 01:27:37;;;;;;;20.45;13.30;;;6.00;99.90;;;;;;5027390;28;20056;-72
2022/11/29 01:30:05;;;;;;;22.52;14.05;;;6.00;99.90;;;;;;4993117;28;20161;-72
2022/11/29 01:32:30;;;;;;;22.15;12.77;;;6.00;99.90;;;;;;5026048;28;20049;-72
2022/11/29 01:34:56;;;;;;;21.02;12.57;;;6.00;99.90;;;;;;4992435;28;20376;-71
2022/11/29 01:37:22;;;;;;;20.40;12.82;;;5.90;99.90;;;;;;5004981;28;20046;-72
2022/11/29 01:39:47;;;;;;;19.92;13.13;;;5.90;99.90;;;;;;5012072;28;20038;-71
2022/11/29 01:42:13;;;;;;;20.45;12.40;;;5.90;99.90;;;;;;5011080;28;20107;-72
2022/11/29 01:44:45;;;;;;;19.27;12.35;;;5.90;99.90;;;;;;5028269;28;20153;-71
2022/11/29 01:47:11;;;;;;;20.52;12.90;;;6.00;99.90;;;;;;5023398;28;20041;-71
2022/11/29 01:49:41;;;;;;;20.85;13.07;;;5.90;99.90;;;;;;5009213;28;20049;-71
2022/11/29 01:52:13;;;;;;;22.90;12.98;;;6.00;99.90;;;;;;5005615;28;20056;-72
2022/11/29 01:54:41;;;;;;;22.58;13.02;;;5.90;99.90;;;;;;5001684;28;20042;-72
2022/11/29 01:57:07;;;;;;;20.73;12.18;;;6.00;99.90;;;;;;5012213;28;20045;-72
2022/11/29 01:59:32;;;;;;;23.70;12.98;;;6.00;99.90;;;;;;4992970;28;20045;-72
2022/11/29 02:02:11;;;;;;;23.77;13.80;;;6.00;99.90;;;;;;5010364;28;20111;-71
2022/11/29 02:04:37;;;;;;;20.48;12.85;;;5.90;99.90;;;;;;5013433;28;20136;-72
2022/11/29 02:07:03;;;;;;;21.67;12.52;;;5.90;99.90;;;;;;5011147;28;20116;-71
2022/11/29 02:09:29;;;;;;;22.48;13.25;;;5.90;99.90;;;;;;5022260;28;20119;-71
2022/11/29 02:11:58;;;;;;;23.13;13.70;;;5.90;99.90;;;;;;5028207;28;20064;-71
2022/11/29 02:14:42;;;;;;;21.70;13.55;;;5.90;99.90;;;;;;5026601;28;20045;-71
2022/11/29 02:17:16;;;;;;;19.10;12.27;;;5.90;99.90;;;;;;5028834;28;20160;-71
2022/11/29 02:20:01;;;;;;;20.63;12.70;;;5.90;99.90;;;;;;5022689;28;20049;-71
2022/11/29 02:22:37;;;;;;;22.10;14.63;;;5.90;99.90;;;;;;5028737;28;20041;-72
2022/11/29 02:25:10;;;;;;;22.48;13.30;;;5.90;99.90;;;;;;4993258;28;20041;-71
2022/11/29 02:27:54;;;;;;;19.85;12.75;;;5.90;99.90;;;;;;5012181;28;20038;-71
2022/11/29 02:31:11;;;;;;;26.38;14.52;;;5.90;99.90;;;;;;5022967;28;20064;-71
2022/11/29 02:33:49;;;;;;;21.27;13.70;;;5.90;99.90;;;;;;5027519;28;20063;-71
2022/11/29 02:36:24;;;;;;;24.73;13.82;;;5.90;99.90;;;;;;5027204;28;20049;-72
2022/11/29 02:39:17;;;;;;;21.92;13.98;;;5.90;99.90;;;;;;5027118;28;20061;-71
2022/11/29 02:41:54;;;;;;;23.08;13.63;;;5.90;99.90;;;;;;5012882;28;20136;-70
2022/11/29 02:44:50;;;;;;;25.15;14.40;;;5.90;99.90;;;;;;5005397;28;20037;-72
2022/11/29 02:47:33;;;;;;;22.73;14.13;;;5.90;99.90;;;;;;5011347;28;20224;-71
2022/11/29 02:50:19;;;;;;;21.63;14.18;;;5.90;99.90;;;;;;5026296;28;20045;-72
2022/11/29 02:53:17;;;;;;;23.35;14.63;;;5.90;99.90;;;;;;5028636;28;20052;-71
2022/11/29 02:55:50;;;;;;;24.48;14.45;;;5.90;99.90;;;;;;5017238;28;20045;-72
2022/11/29 02:58:18;;;;;;;25.50;14.32;;;5.90;99.90;;;;;;5024850;28;20115;-71
2022/11/29 03:00:52;;;;;;;27.05;15.90;;;5.90;99.90;;;;;;5008174;28;20091;-71
2022/11/29 03:03:22;;;;;;;23.77;15.27;;;5.90;99.90;;;;;;5025623;28;20073;-71
2022/11/29 03:06:10;;;;;;;23.27;14.40;;;5.90;99.90;;;;;;5012885;28;20137;-70
2022/11/29 03:09:06;;;;;;;23.48;14.80;;;5.90;99.90;;;;;;4995366;28;20136;-71
2022/11/29 03:11:54;;;;;;;23.52;15.38;;;5.90;99.90;;;;;;5025999;28;20087;-70
2022/11/29 03:14:27;;;;;;;27.17;15.27;;;5.90;99.90;;;;;;4998500;28;20049;-72
2022/11/29 03:17:14;;;;;;;23.80;14.52;;;5.90;99.90;;;;;;5015587;28;20140;-71
2022/11/29 03:19:58;;;;;;;22.73;14.70;;;5.90;99.90;;;;;;5024941;28;20049;-71
2022/11/29 03:22:47;;;;;;;25.27;15.00;;;5.90;99.90;;;;;;5030076;28;20478;-73
2022/11/29 03:25:30;;;;;;;23.55;15.20;;;5.90;99.90;;;;;;5017516;28;20049;-71
2022/11/29 03:28:00;;;;;;;26.70;15.50;;;5.90;99.90;;;;;;5011869;28;20077;-70
2022/11/29 03:30:26;;;;;;;28.05;14.65;;;5.80;99.90;;;;;;5025530;28;20045;-70
2022/11/29 03:33:01;;;;;;;23.20;14.45;;;5.90;99.90;;;;;;4998162;28;20754;-72
2022/11/29 03:35:46;;;;;;;28.92;17.10;;;5.90;99.90;;;;;;5015137;28;20215;-71
2022/11/29 03:38:18;;;;;;;28.23;16.35;;;5.80;99.90;;;;;;5031032;28;20115;-71
2022/11/29 03:41:20;;;;;;;26.83;15.75;;;5.80;99.90;;;;;;5009628;28;20341;-71
2022/11/29 03:44:06;;;;;;;24.98;15.90;;;5.90;99.90;;;;;;5026767;28;20049;-71
2022/11/29 03:46:52;;;;;;;24.95;14.73;;;5.90;99.90;;;;;;5012666;28;20087;-70
2022/11/29 03:49:48;;;;;;;26.48;15.18;;;5.90;99.90;;;;;;5025014;28;20223;-70
2022/11/29 03:52:26;;;;;;;25.13;15.45;;;5.90;99.90;;;;;;5013891;28;20471;-70
2022/11/29 03:54:55;;;;;;;23.02;15.30;;;5.80;99.90;;;;;;5030194;28;20088;-72
2022/11/29 03:57:25;;;;;;;27.10;16.15;;;5.80;99.90;;;;;;5026423;28;20127;-72
2022/11/29 03:59:58;;;;;;;25.23;15.77;;;5.80;99.90;;;;;;4994567;28;20056;-70
2022/11/29 04:02:51;;;;;;;29.83;15.55;;;5.80;99.90;;;;;;5024541;28;20084;-70
2022/11/29 04:05:21;;;;;;;26.42;15.95;;;5.90;99.90;;;;;;5027445;28;20106;-72
2022/11/29 04:07:50;;;;;;;29.67;16.08;;;5.80;99.90;;;;;;5012425;28;20045;-71
2022/11/29 04:10:18;;;;;;;26.17;16.25;;;5.80;99.90;;;;;;5031387;28;20045;-71
2022/11/29 04:13:09;;;;;;;26.75;15.57;;;5.80;99.90;;;;;;5010559;28;20054;-71
2022/11/29 04:15:47;;;;;;;24.15;15.73;;;5.80;99.90;;;;;;5022340;28;20367;-71
2022/11/29 04:18:43;;;;;;;28.05;15.63;;;5.80;99.90;;;;;;5030296;28;20081;-71
2022/11/29 04:21:17;;;;;;;27.02;16.58;;;5.80;99.90;;;;;;5029558;28;20055;-72
2022/11/29 04:23:52;;;;;;;28.27;15.40;;;5.90;99.90;;;;;;5030774;28;20045;-71
2022/11/29 04:26:45;;;;;;;27.13;15.65;;;5.90;99.90;;;;;;5025936;28;20049;-71
2022/11/29 04:29:43;;;;;;;26.92;16.58;;;5.90;99.90;;;;;;5027763;28;20056;-71
2022/11/29 04:32:39;;;;;;;29.38;17.17;;;5.90;99.90;;;;;;5012268;28;20045;-71
2022/11/29 04:35:37;;;;;;;28.25;16.60;;;5.80;99.90;;;;;;5026091;28;20041;-71
2022/11/29 04:38:31;;;;;;;24.92;15.98;;;5.90;99.90;;;;;;5015138;28;20141;-72
2022/11/29 04:41:09;;;;;;;31.98;16.83;;;5.80;99.90;;;;;;5010062;28;20045;-71
2022/11/29 04:43:50;;;;;;;26.38;15.65;;;5.80;99.90;;;;;;5030036;28;20041;-71
2022/11/29 04:46:53;;;;;;;27.42;16.20;;;5.80;99.90;;;;;;5029217;28;20471;-71
2022/11/29 04:49:43;;;;;;;27.50;16.85;;;5.90;99.90;;;;;;5030168;28;20053;-71
2022/11/29 04:52:54;;;;;;;29.50;18.40;;;5.90;99.90;;;;;;5024788;28;20238;-72
2022/11/29 04:55:33;;;;;;;29.33;17.02;;;5.90;99.90;;;;;;5023966;28;20082;-72
2022/11/29 04:58:25;;;;;;;30.90;18.63;;;5.90;99.90;;;;;;5012494;28;20049;-70
2022/11/29 05:01:00;;;;;;;27.52;17.23;;;5.80;99.90;;;;;;5026129;28;20108;-71
2022/11/29 05:03:35;;;;;;;30.52;17.25;;;5.90;99.90;;;;;;5025736;28;20056;-71
2022/11/29 05:06:12;;;;;;;30.80;18.10;;;5.90;99.90;;;;;;5030340;28;20041;-72
2022/11/29 05:08:49;;;;;;;26.15;16.15;;;5.90;99.90;;;;;;5012816;28;20838;-72
2022/11/29 05:11:24;;;;;;;27.33;16.75;;;5.90;99.90;;;;;;5028371;28;20115;-71
2022/11/29 05:14:27;;;;;;;29.90;17.95;;;5.90;99.90;;;;;;5008983;28;20092;-71
2022/11/29 05:17:14;;;;;;;27.48;17.05;;;5.90;99.90;;;;;;5027776;28;20493;-70
2022/11/29 05:19:54;;;;;;;30.80;16.98;;;5.90;99.90;;;;;;5027816;28;20063;-71
2022/11/29 05:22:40;;;;;;;27.23;16.55;;;5.90;99.90;;;;;;5008168;28;20057;-71
2022/11/29 05:25:35;;;;;;;36.55;18.52;;;5.90;99.90;;;;;;4991820;28;20482;-71
2022/11/29 05:28:23;;;;;;;28.98;16.88;;;5.90;99.90;;;;;;5028169;28;20114;-71
2022/11/29 05:31:07;;;;;;;33.40;18.37;;;5.90;99.90;;;;;;5028986;28;20119;-71
2022/11/29 05:33:41;;;;;;;29.67;17.55;;;5.90;99.90;;;;;;5028532;28;20072;-71
2022/11/29 05:36:52;;;;;;;35.20;19.77;;;5.90;99.90;;;;;;5027689;28;20057;-71
2022/11/29 05:39:39;;;;;;;31.38;18.63;;;5.90;99.90;;;;;;5024519;28;20045;-72
2022/11/29 05:42:26;;;;;;;29.35;17.80;;;5.90;99.90;;;;;;5028662;28;20049;-71
2022/11/29 05:45:17;;;;;;;30.02;18.63;;;5.80;99.90;;;;;;5029321;28;20143;-71
2022/11/29 05:48:24;;;;;;;30.73;18.10;;;5.90;99.90;;;;;;5025646;28;20042;-71
2022/11/29 05:51:10;;;;;;;27.52;17.65;;;5.90;99.90;;;;;;5028745;28;20049;-70
2022/11/29 05:54:00;;;;;;;38.03;19.90;;;5.80;99.90;;;;;;5028576;28;20399;-70
2022/11/29 05:56:51;;;;;;;30.88;19.73;;;5.80;99.90;;;;;;5027185;28;20106;-71
2022/11/29 05:59:26;;;;;;;29.23;18.15;;;5.80;99.90;;;;;;5027910;28;20053;-70
2022/11/29 06:02:04;;;;;;;32.55;19.08;;;5.80;99.90;;;;;;5027814;28;20912;-71
2022/11/29 06:04:40;;;;;;;32.38;18.25;;;5.80;99.90;;;;;;5028612;28;20045;-71
2022/11/29 06:07:37;;;;;;;32.33;19.63;;;5.80;99.90;;;;;;5027325;28;20758;-71
2022/11/29 06:10:11;;;;;;;36.95;21.25;;;5.80;99.90;;;;;;5019998;28;20073;-70
2022/11/29 06:12:37;;;;;;;33.83;19.73;;;5.80;99.90;;;;;;4988149;28;20167;-71
2022/11/29 06:15:03;;;;;;;34.78;19.20;;;5.80;99.90;;;;;;5028785;28;20482;-71
2022/11/29 06:17:47;;;;;;;33.85;20.98;;;5.80;99.90;;;;;;5029066;28;20171;-69
2022/11/29 06:20:19;;;;;;;35.40;20.58;;;5.80;99.90;;;;;;5022629;28;20259;-70
2022/11/29 06:23:07;;;;;;;34.17;20.15;;;5.80;99.90;;;;;;5027752;28;20038;-71
2022/11/29 06:25:47;;;;;;;;;;;5.80;99.90;;;;;;5013910;28;20045;-71
2022/11/29 06:28:32;;;;;;;31.95;19.80;;;5.80;99.90;;;;;;5028280;28;19959;-71
2022/11/29 06:31:44;;;;;;;35.40;19.77;;;5.80;99.90;;;;;;5024869;28;20460;-70
2022/11/29 06:34:18;;;;;;;36.00;20.02;;;5.80;99.90;;;;;;5025734;28;20057;-72
2022/11/29 06:36:54;;;;;;;36.47;19.90;;;5.80;99.90;;;;;;5029308;28;20061;-72
2022/11/29 06:39:27;;;;;;;35.17;19.88;;;5.80;99.90;;;;;;4997582;28;20049;-72
2022/11/29 06:41:54;;;;;;;35.08;20.08;;;5.80;99.90;;;;;;5030409;28;20096;-72
2022/11/29 06:44:20;;;;;;;31.73;19.73;;;5.80;99.90;;;;;;5032371;28;20053;-72
2022/11/29 06:46:50;;;;;;;34.60;20.20;;;5.80;99.90;;;;;;4998413;28;20041;-72
2022/11/29 06:49:38;;;;;;;35.05;20.27;;;5.80;99.90;;;;;;5030258;28;20465;-72
2022/11/29 06:52:24;;;;;;;34.17;20.50;;;5.80;99.90;;;;;;5033179;28;20482;-72
2022/11/29 06:55:04;;;;;;;38.15;20.35;;;5.80;99.90;;;;;;5031499;28;20045;-71
2022/11/29 06:58:01;;;;;;;32.75;21.10;;;5.80;99.90;;;;;;5031414;28;20057;-71
2022/11/29 07:00:31;;;;;;;34.72;19.95;;;5.80;99.90;;;;;;5030291;28;20084;-71
2022/11/29 07:03:11;;;;;;;32.55;20.05;;;5.80;99.90;;;;;;5031425;28;20124;-70
2022/11/29 07:05:38;;;;;;;30.85;19.70;;;5.80;99.90;;;;;;5031397;28;20041;-71
2022/11/29 07:08:11;;;;;;;32.58;19.08;;;5.80;99.90;;;;;;5032061;28;20223;-72
2022/11/29 07:10:37;;;;;;;34.92;20.80;;;5.80;99.90;;;;;;5011215;28;20467;-71
2022/11/29 07:13:03;;;;;;;33.05;19.10;;;5.80;99.90;;;;;;5020673;28;20053;-70
2022/11/29 07:15:29;;;;;;;35.05;20.77;;;5.80;99.90;;;;;;5004306;28;20096;-71
2022/11/29 07:17:58;;;;;;;32.63;19.73;;;5.80;99.90;;;;;;5010169;28;20058;-70
2022/11/29 07:20:36;;;;;;;32.58;19.73;;;5.80;99.90;;;;;;5029368;28;20380;-70
2022/11/29 07:23:09;;;;;;;35.17;19.65;;;5.80;99.90;;;;;;5029422;28;20049;-71
2022/11/29 07:26:01;;;;;;;32.70;20.30;;;5.80;99.90;;;;;;5014599;28;20037;-71
2022/11/29 07:28:55;;;;;;;37.53;19.52;;;5.80;99.90;;;;;;5025789;28;20133;-72
2022/11/29 07:31:34;;;;;;;35.15;20.17;;;5.80;99.90;;;;;;5023755;28;20047;-71
2022/11/29 07:34:25;;;;;;;35.08;19.50;;;5.80;99.90;;;;;;4996376;28;20185;-72
2022/11/29 07:37:29;;;;;;;31.38;19.77;;;5.80;99.90;;;;;;5030771;28;20104;-70
2022/11/29 07:40:13;;;;;;;41.75;20.67;;;5.80;99.90;;;;;;5028197;28;20509;-72
2022/11/29 07:42:50;;;;;;;35.78;18.98;;;5.80;99.90;;;;;;5031060;28;20051;-71
2022/11/29 07:45:32;;;;;;;33.85;20.40;;;5.80;99.90;;;;;;5028685;28;20045;-72
2022/11/29 07:47:58;;;;;;;34.05;18.90;;;5.80;99.90;;;;;;5014682;28;20079;-71
2022/11/29 07:50:24;;;;;;;33.22;19.65;;;5.80;99.90;;;;;;5028866;28;20060;-72
2022/11/29 07:52:50;;;;;;;34.47;19.52;;;5.80;99.90;;;;;;5012744;28;20375;-72
2022/11/29 07:55:18;;;;;;;28.77;18.33;;;5.80;99.90;;;;;;5013812;28;20041;-72
2022/11/29 07:57:43;;;;;;;31.97;19.60;;;5.80;99.90;;;;;;5008378;28;20360;-71
2022/11/29 08:00:10;;;;;;;30.70;19.23;;;5.80;99.90;;;;;;5012972;28;20304;-72
2022/11/29 08:02:36;;;;;;;36.50;20.38;;;5.80;99.90;;;;;;5013274;28;20429;-72
2022/11/29 08:05:02;;;;;;;33.55;20.25;;;5.80;99.90;;;;;;5030146;28;20084;-71
2022/11/29 08:07:28;;;;;;;33.42;20.77;;;5.80;99.90;;;;;;5013277;28;20689;-72
2022/11/29 08:09:54;;;;;;;33.55;19.38;;;5.80;99.90;;;;;;5030001;28;20128;-72
2022/11/29 08:12:20;;;;;;;32.20;19.02;;;5.80;99.90;;;;;;5030134;28;20054;-71
2022/11/29 08:14:46;;;;;;;38.00;21.27;;;5.80;99.90;;;;;;5027584;28;20467;-71
2022/11/29 08:17:11;;;;;;;31.65;19.98;;;5.80;99.90;;;;;;5029448;28;20061;-71
2022/11/29 08:19:37;;;;;;;31.63;18.92;;;5.80;99.90;;;;;;4978658;28;20061;-71
2022/11/29 08:22:03;;;;;;;34.25;19.63;;;5.80;99.90;;;;;;5030201;28;20045;-72
2022/11/29 08:24:28;;;;;;;31.05;17.65;;;5.80;99.90;;;;;;5025667;28;20136;-72
2022/11/29 08:26:54;;;;;;;32.55;19.27;;;5.80;99.90;;;;;;5030616;28;20045;-71
2022/11/29 08:29:20;;;;;;;32.60;20.27;;;5.90;99.90;;;;;;5029084;28;20057;-71
2022/11/29 08:31:49;;;;;;;36.05;20.10;;;5.90;99.90;;;;;;5013150;28;20076;-71
2022/11/29 08:34:15;;;;;;;37.00;19.70;;;5.90;99.90;;;;;;5028651;28;20372;-70
2022/11/29 08:36:41;;;;;;;35.85;20.90;;;5.90;99.90;;;;;;5027204;28;20053;-72
2022/11/29 08:39:06;;;;;;;34.75;21.98;;;5.90;99.90;;;;;;5013036;28;20519;-71
2022/11/29 08:41:32;;;;;;;34.28;20.98;;;5.90;99.90;;;;;;4996966;28;20048;-71
2022/11/29 08:43:58;;;;;;;34.80;19.17;;;5.90;99.90;;;;;;5024283;28;20041;-71
2022/11/29 08:47:34;;;;;;;35.47;19.95;;;5.90;99.90;;;;;;5013093;28;20041;-71
2022/11/29 08:49:09;;;;;;;34.20;20.73;;;5.90;99.90;;;;;;5011904;28;20636;-72
2022/11/29 08:51:35;;;;;;;33.80;20.48;;;5.90;99.90;;;;;;4993267;28;20060;-72
2022/11/29 08:54:00;;;;;;;35.75;21.05;;;5.90;99.90;;;;;;5011706;28;20073;-70
2022/11/29 08:56:26;;;;;;;36.22;20.27;;;5.90;99.90;;;;;;4993034;28;20531;-72
2022/11/29 08:58:52;;;;;;;31.67;18.83;;;5.90;99.90;;;;;;5026860;28;20049;-73
2022/11/29 09:01:18;;;;;;;33.10;19.35;;;5.90;99.90;;;;;;5027985;28;20372;-71
2022/11/29 09:04:00;;;;;;;33.33;19.45;;;6.00;99.90;;;;;;4996142;28;20148;-72
2022/11/29 09:06:28;;;;;;;35.40;19.63;;;6.00;99.90;;;;;;5028055;28;20559;-71
2022/11/29 09:08:55;;;;;;;32.83;20.02;;;5.90;99.90;;;;;;5013451;28;20763;-72
2022/11/29 09:11:21;;;;;;;33.33;19.77;;;5.90;99.90;;;;;;5012716;28;20060;-72
2022/11/29 09:13:48;;;;;;;35.47;19.60;;;6.00;99.90;;;;;;5012864;28;20045;-72
2022/11/29 09:16:19;;;;;;;34.72;20.30;;;6.00;99.90;;;;;;4995515;28;20038;-72
2022/11/29 09:18:45;;;;;;;33.70;20.10;;;6.00;99.90;;;;;;4992793;28;20743;-71
2022/11/29 09:21:12;;;;;;;32.35;20.00;;;5.90;99.90;;;;;;5012313;28;20061;-71
2022/11/29 09:23:38;;;;;;;35.55;21.05;;;5.90;99.90;;;;;;5022817;28;20115;-71
2022/11/29 09:26:04;;;;;;;36.80;20.67;;;5.90;99.90;;;;;;5022586;28;20474;-71
2022/11/29 09:28:30;;;;;;;38.50;22.13;;;5.90;99.90;;;;;;5022575;28;20088;-72
2022/11/29 09:31:02;;;;;;;34.67;19.83;;;5.90;99.90;;;;;;5008579;28;20058;-71
2022/11/29 09:33:28;;;;;;;36.28;22.45;;;6.00;99.90;;;;;;5009385;28;20133;-73
2022/11/29 09:35:56;;;;;;;37.50;22.40;;;6.00;99.90;;;;;;5026628;28;20173;-71
2022/11/29 09:38:25;;;;;;;36.72;20.73;;;6.00;99.90;;;;;;5027274;28;20079;-71
2022/11/29 09:40:53;;;;;;;36.70;20.40;;;6.00;99.90;;;;;;4995870;28;20607;-71
2022/11/29 09:43:29;;;;;;;42.03;20.83;;;6.10;99.90;;;;;;5009109;28;20431;-71
2022/11/29 09:46:14;;;;;;;35.72;21.08;;;6.10;99.90;;;;;;5027071;28;20084;-71
2022/11/29 09:48:44;;;;;;;36.83;20.60;;;6.10;99.90;;;;;;4998851;28;20053;-70
2022/11/29 09:51:18;;;;;;;38.42;23.73;;;6.10;99.90;;;;;;5012372;28;20541;-71
2022/11/29 09:53:47;;;;;;;37.95;22.05;;;6.10;99.90;;;;;;5010179;28;20077;-71
2022/11/29 09:56:36;;;;;;;36.63;22.27;;;6.10;99.90;;;;;;5028257;28;20240;-71
2022/11/29 09:59:04;;;;;;;36.90;20.83;;;6.10;99.90;;;;;;5028179;28;20049;-71
2022/11/29 10:01:56;;;;;;;38.33;23.17;;;6.20;99.90;;;;;;4994943;28;20045;-72
2022/11/29 10:04:28;;;;;;;41.55;25.33;;;6.20;99.90;;;;;;5022697;28;20045;-72
2022/11/29 10:07:01;;;;;;;41.10;22.33;;;6.10;99.90;;;;;;4996282;28;20383;-71
2022/11/29 10:09:56;;;;;;;41.40;22.90;;;6.10;99.90;;;;;;5027004;28;20128;-71
2022/11/29 10:12:45;;;;;;;41.13;23.40;;;6.20;99.90;;;;;;5020790;28;20387;-71
2022/11/29 10:15:26;;;;;;;42.63;24.05;;;6.20;99.90;;;;;;5011534;28;20136;-70
2022/11/29 10:18:16;;;;;;;44.33;24.20;;;6.20;99.90;;;;;;5027007;28;20049;-71
2022/11/29 10:20:43;;;;;;;44.28;24.67;;;6.20;99.90;;;;;;5028079;28;20053;-72
2022/11/29 10:23:12;;;;;;;42.25;23.70;;;6.20;99.90;;;;;;5027936;28;20041;-71
2022/11/29 10:25:42;;;;;;;;;;;6.30;99.90;;;;;;5029393;28;20081;-71
2022/11/29 10:28:09;;;;;;;43.67;23.25;;;6.30;99.90;;;;;;5027724;28;20303;-71
2022/11/29 10:30:35;;;;;;;44.40;25.20;;;6.30;99.90;;;;;;5027115;28;20072;-72
2022/11/29 10:33:01;;;;;;;44.05;24.90;;;6.30;99.90;;;;;;4994982;28;20073;-71
2022/11/29 10:35:28;;;;;;;47.60;26.60;;;6.20;99.90;;;;;;5012158;28;20053;-70
2022/11/29 10:37:55;;;;;;;44.75;24.05;;;6.20;99.90;;;;;;4991980;28;20054;-71
2022/11/29 10:40:25;;;;;;;46.85;24.05;;;6.20;99.90;;;;;;4991963;28;20049;-71
2022/11/29 10:42:52;;;;;;;42.20;23.67;;;6.20;99.90;;;;;;4992825;28;20042;-72
2022/11/29 10:45:30;;;;;;;42.95;24.63;;;6.20;99.90;;;;;;4998585;28;20418;-70
2022/11/29 10:48:23;;;;;;;39.20;22.70;;;6.30;99.90;;;;;;5011513;28;20056;-72
2022/11/29 10:50:50;;;;;;;43.05;24.25;;;6.30;99.90;;;;;;5026780;28;20128;-71
2022/11/29 10:53:23;;;;;;;42.15;24.95;;;6.30;99.90;;;;;;4993430;28;20053;-67
2022/11/29 10:55:50;;;;;;;47.30;26.13;;;6.30;99.90;;;;;;4994972;28;20045;-68
2022/11/29 10:58:18;;;;;;;42.70;25.00;;;6.30;99.90;;;;;;5011382;28;20056;-67
2022/11/29 11:00:53;;;;;;;42.63;25.83;;;6.20;99.90;;;;;;5009831;28;20134;-70
2022/11/29 11:03:30;;;;;;;49.15;26.65;;;6.30;99.90;;;;;;5007642;28;20048;-70
2022/11/29 11:05:57;;;;;;;51.33;28.15;;;6.30;99.90;;;;;;5021215;28;20046;-71
2022/11/29 11:08:23;;;;;;;46.78;27.48;;;6.30;99.90;;;;;;5027465;28;20451;-71
2022/11/29 11:10:54;;;;;;;47.42;26.92;;;6.30;99.90;;;;;;5011289;28;20057;-71
2022/11/29 11:13:21;;;;;;;52.70;28.63;;;6.30;99.90;;;;;;5010292;28;20049;-65
2022/11/29 11:15:47;;;;;;;47.67;27.17;;;6.30;99.90;;;;;;4994600;28;20046;-66
2022/11/29 11:18:24;;;;;;;51.85;27.95;;;6.30;99.90;;;;;;5010366;28;20052;-65
2022/11/29 11:20:56;;;;;;;47.60;28.30;;;6.30;99.90;;;;;;5011408;28;20049;-66
2022/11/29 11:23:27;;;;;;;52.10;29.48;;;6.30;99.90;;;;;;5011024;28;20103;-65
2022/11/29 11:26:01;;;;;;;50.83;28.40;;;6.30;99.90;;;;;;5013063;28;20167;-66
2022/11/29 11:28:38;;;;;;;55.80;29.08;;;6.20;99.90;;;;;;5007398;28;20091;-65
2022/11/29 11:31:07;;;;;;;49.10;27.38;;;6.20;99.90;;;;;;4999643;28;20156;-65
2022/11/29 11:33:35;;;;;;;54.83;29.95;;;6.30;99.90;;;;;;4993045;28;20559;-65
2022/11/29 11:36:13;;;;;;;53.88;30.40;;;6.20;99.90;;;;;;5009657;28;20054;-65
2022/11/29 11:39:00;;;;;;;64.17;30.87;;;6.00;99.90;;;;;;5013743;28;20049;-64
2022/11/29 11:44:34;;;;;;;61.33;31.58;;;6.00;99.90;;;;;;5029112;28;20546;-65
2022/11/29 11:47:00;;;;;;;53.22;29.65;;;6.10;99.90;;;;;;5030395;28;20049;-65
2022/11/29 11:49:45;;;;;;;60.92;31.33;;;6.20;99.90;;;;;;4997726;28;20467;-65
2022/11/29 11:52:28;;;;;;;60.20;32.72;;;6.20;99.90;;;;;;5003509;28;20081;-65
2022/11/29 11:54:59;;;;;;;57.05;30.33;;;6.20;99.90;;;;;;5030343;28;20128;-65
2022/11/29 11:57:24;;;;;;;66.68;31.15;;;6.20;99.90;;;;;;4993486;28;20054;-66
2022/11/29 11:59:51;;;;;;;58.95;30.83;;;6.20;99.90;;;;;;4997147;28;20118;-66
2022/11/29 12:02:37;;;;;;;60.65;29.98;;;6.20;99.90;;;;;;5030517;28;20132;-65
2022/11/29 12:05:14;;;;;;;60.63;30.42;;;6.20;99.90;;;;;;5030270;28;20042;-65
2022/11/29 12:07:52;;;;;;;60.53;32.80;;;6.30;99.90;;;;;;5013092;28;20757;-65
2022/11/29 12:10:21;;;;;;;65.82;31.27;;;6.30;99.90;;;;;;5029260;28;20136;-65
2022/11/29 12:12:47;;;;;;;71.97;33.60;;;6.30;99.90;;;;;;5013698;28;20585;-65
2022/11/29 12:15:18;;;;;;;60.33;31.73;;;6.20;99.90;;;;;;5010689;28;20049;-65
2022/11/29 12:18:02;;;;;;;60.80;30.98;;;6.30;99.90;;;;;;5012790;28;20096;-65
2022/11/29 12:20:55;;;;;;;64.75;30.65;;;6.30;99.90;;;;;;5029855;28;20050;-65
2022/11/29 12:23:29;;;;;;;61.67;32.58;;;6.30;99.90;;;;;;5010977;28;20699;-65
2022/11/29 12:25:57;;;;;;;65.68;31.52;;;6.30;99.90;;;;;;5029722;28;20037;-65
2022/11/29 12:28:34;;;;;;;50.20;24.50;;;6.30;99.90;;;;;;5012776;28;20051;-65
2022/11/29 12:31:38;;;;;;;64.30;31.70;;;6.30;99.90;;;;;;5014873;28;20056;-65
2022/11/29 12:34:18;;;;;;;68.22;33.10;;;6.30;99.90;;;;;;5018104;28;20041;-65
2022/11/29 12:36:50;;;;;;;68.95;33.08;;;6.20;99.90;;;;;;5029212;28;20096;-64
2022/11/29 12:39:15;;;;;;;59.22;31.13;;;6.30;99.90;;;;;;5030769;28;20064;-65
2022/11/29 12:41:59;;;;;;;65.82;31.15;;;6.30;99.90;;;;;;5030200;28;20046;-65
2022/11/29 12:44:49;;;;;;;69.32;35.30;;;6.40;99.90;;;;;;4993124;28;20115;-65
2022/11/29 12:47:42;;;;;;;63.53;32.20;;;6.40;99.90;;;;;;5010258;28;20042;-66
2022/11/29 12:50:20;;;;;;;65.47;33.40;;;6.40;99.90;;;;;;5026197;28;20049;-65
2022/11/29 12:53:09;;;;;;;69.88;35.13;;;6.40;99.90;;;;;;5012105;28;20472;-64
2022/11/29 12:56:00;;;;;;;61.20;31.42;;;6.40;99.90;;;;;;5008722;28;20277;-66
2022/11/29 12:58:32;;;;;;;60.10;32.80;;;6.40;99.90;;;;;;5009722;28;20058;-65
2022/11/29 13:01:18;;;;;;;57.55;30.80;;;6.40;99.90;;;;;;5028722;28;20076;-64
2022/11/29 13:03:53;;;;;;;61.00;31.67;;;6.40;99.90;;;;;;5029470;28;20106;-66
2022/11/29 13:07:06;;;;;;;59.65;32.10;;;6.50;99.90;;;;;;5028757;28;20103;-66
2022/11/29 13:09:41;;;;;;;67.57;33.67;;;6.50;99.90;;;;;;5011304;28;20545;-65
2022/11/29 13:12:32;;;;;;;62.30;32.10;;;6.50;99.90;;;;;;5026674;28;20050;-65
2022/11/29 13:15:15;;;;;;;56.03;30.83;;;6.50;99.90;;;;;;5023501;28;20248;-66
2022/11/29 13:17:56;;;;;;;65.03;32.67;;;6.40;99.90;;;;;;4995219;28;20466;-66
2022/11/29 13:20:36;;;;;;;61.10;30.83;;;6.40;99.90;;;;;;5029374;28;20123;-65
2022/11/29 13:23:35;;;;;;;64.63;34.05;;;6.50;99.90;;;;;;4996589;28;20132;-65
2022/11/29 13:26:03;;;;;;;64.47;32.42;;;6.50;99.90;;;;;;5015381;28;20064;-64